sensor_id;sensor_type;location;lat;lon;timestamp;temperature;humidity
25564;DHT22;13453;47.994;8.790;2022-09-20T00:04:37;22.90;49.80
25564;DHT22;13453;47.994;8.790;2022-09-20T00:14:39;22.90;49.80
25564;DHT22;13453;47.994;8.790;2022-09-20T00:24:41;22.90;49.80
25564;DHT22;13453;47.994;8.790;2022-09-20T00:34:49;23.00;49.90
25564;DHT22;13453;47.994;8.790;2022-09-20T00:45:26;22.90;49.80
25564;DHT22;13453;47.994;8.790;2022-09-20T00:55:29;22.90;49.80
25564;DHT22;13453;47.994;8.790;2022-09-20T01:05:31;22.90;49.80
25564;DHT22;13453;47.994;8.790;2022-09-20T01:15:35;22.90;49.80
25564;DHT22;13453;47.994;8.790;2022-09-20T01:36:03;22.80;49.70
25564;DHT22;13453;47.994;8.790;2022-09-20T01:46:27;22.80;49.70
25564;DHT22;13453;47.994;8.790;2022-09-20T02:18:02;22.80;49.70
25564;DHT22;13453;47.994;8.790;2022-09-20T02:49:00;22.80;49.00
25564;DHT22;13453;47.994;8.790;2022-09-20T03:20:11;22.80;49.00
25564;DHT22;13453;47.994;8.790;2022-09-20T03:30:23;22.70;49.00
25564;DHT22;13453;47.994;8.790;2022-09-20T04:21:56;22.70;48.60
25564;DHT22;13453;47.994;8.790;2022-09-20T06:26:44;22.60;46.80
25564;DHT22;13453;47.994;8.790;2022-09-20T06:36:50;22.80;46.10
25564;DHT22;13453;47.994;8.790;2022-09-20T06:47:13;23.10;45.70
25564;DHT22;13453;47.994;8.790;2022-09-20T06:57:35;23.30;45.30
25564;DHT22;13453;47.994;8.790;2022-09-20T07:07:40;23.30;45.20
25564;DHT22;13453;47.994;8.790;2022-09-20T07:17:44;23.40;45.40
25564;DHT22;13453;47.994;8.790;2022-09-20T07:27:48;23.40;45.60
25564;DHT22;13453;47.994;8.790;2022-09-20T07:37:56;23.50;45.90
25564;DHT22;13453;47.994;8.790;2022-09-20T07:47:57;23.50;46.60
25564;DHT22;13453;47.994;8.790;2022-09-20T07:58:00;23.50;46.00
25564;DHT22;13453;47.994;8.790;2022-09-20T08:08:02;23.50;46.00
25564;DHT22;13453;47.994;8.790;2022-09-20T08:18:05;23.40;46.30
25564;DHT22;13453;47.994;8.790;2022-09-20T08:28:09;23.40;46.50
25564;DHT22;13453;47.994;8.790;2022-09-20T08:38:10;23.40;46.60
25564;DHT22;13453;47.994;8.790;2022-09-20T08:48:33;23.40;46.70
25564;DHT22;13453;47.994;8.790;2022-09-20T08:58:35;23.50;46.80
25564;DHT22;13453;47.994;8.790;2022-09-20T09:08:37;23.50;46.80
25564;DHT22;13453;47.994;8.790;2022-09-20T09:18:44;23.50;46.80
25564;DHT22;13453;47.994;8.790;2022-09-20T09:28:59;23.60;47.00
25564;DHT22;13453;47.994;8.790;2022-09-20T09:39:28;23.50;46.80
25564;DHT22;13453;47.994;8.790;2022-09-20T09:49:31;23.50;46.80
25564;DHT22;13453;47.994;8.790;2022-09-20T10:11:00;23.50;46.50
25564;DHT22;13453;47.994;8.790;2022-09-20T10:21:31;23.50;46.10
25564;DHT22;13453;47.994;8.790;2022-09-20T10:42:27;23.50;45.60
25564;DHT22;13453;47.994;8.790;2022-09-20T11:24:00;23.40;45.50
25564;DHT22;13453;47.994;8.790;2022-09-20T11:34:27;23.40;44.90
25564;DHT22;13453;47.994;8.790;2022-09-20T11:44:30;23.30;44.80
25564;DHT22;13453;47.994;8.790;2022-09-20T11:55:04;23.40;44.80
25564;DHT22;13453;47.994;8.790;2022-09-20T12:05:31;23.30;44.80
25564;DHT22;13453;47.994;8.790;2022-09-20T12:15:36;23.30;44.80
25564;DHT22;13453;47.994;8.790;2022-09-20T12:25:57;23.30;44.80
25564;DHT22;13453;47.994;8.790;2022-09-20T12:36:14;23.20;44.70
25564;DHT22;13453;47.994;8.790;2022-09-20T12:46:26;23.20;44.70
25564;DHT22;13453;47.994;8.790;2022-09-20T12:56:35;23.20;44.70
25564;DHT22;13453;47.994;8.790;2022-09-20T13:06:37;23.10;44.40
25564;DHT22;13453;47.994;8.790;2022-09-20T13:16:50;23.10;43.70
25564;DHT22;13453;47.994;8.790;2022-09-20T13:26:54;23.10;42.90
25564;DHT22;13453;47.994;8.790;2022-09-20T13:36:57;23.10;42.50
25564;DHT22;13453;47.994;8.790;2022-09-20T13:46:59;23.00;42.20
25564;DHT22;13453;47.994;8.790;2022-09-20T13:57:04;23.00;42.10
25564;DHT22;13453;47.994;8.790;2022-09-20T14:07:07;23.00;42.20
25564;DHT22;13453;47.994;8.790;2022-09-20T14:17:15;23.00;42.30
25564;DHT22;13453;47.994;8.790;2022-09-20T14:27:20;23.00;42.60
25564;DHT22;13453;47.994;8.790;2022-09-20T14:37:29;23.00;42.90
25564;DHT22;13453;47.994;8.790;2022-09-20T14:47:51;23.00;43.40
25564;DHT22;13453;47.994;8.790;2022-09-20T14:58:01;23.00;43.60
25564;DHT22;13453;47.994;8.790;2022-09-20T15:08:03;23.00;43.60
25564;DHT22;13453;47.994;8.790;2022-09-20T15:18:23;23.00;43.70
25564;DHT22;13453;47.994;8.790;2022-09-20T15:28:26;23.00;44.50
25564;DHT22;13453;47.994;8.790;2022-09-20T15:38:28;23.00;45.40
25564;DHT22;13453;47.994;8.790;2022-09-20T15:48:30;23.00;45.60
25564;DHT22;13453;47.994;8.790;2022-09-20T15:58:33;23.00;45.40
25564;DHT22;13453;47.994;8.790;2022-09-20T16:08:38;23.00;45.10
25564;DHT22;13453;47.994;8.790;2022-09-20T16:18:41;23.00;44.50
25564;DHT22;13453;47.994;8.790;2022-09-20T16:29:01;23.00;44.50
25564;DHT22;13453;47.994;8.790;2022-09-20T16:39:05;23.00;44.50
25564;DHT22;13453;47.994;8.790;2022-09-20T16:49:09;23.00;44.90
25564;DHT22;13453;47.994;8.790;2022-09-20T16:59:13;23.00;46.70
25564;DHT22;13453;47.994;8.790;2022-09-20T17:09:16;23.00;46.80
25564;DHT22;13453;47.994;8.790;2022-09-20T17:19:19;23.00;47.00
25564;DHT22;13453;47.994;8.790;2022-09-20T17:29:21;23.00;46.20
25564;DHT22;13453;47.994;8.790;2022-09-20T17:39:23;22.90;46.00
25564;DHT22;13453;47.994;8.790;2022-09-20T17:49:25;22.90;46.00
25564;DHT22;13453;47.994;8.790;2022-09-20T17:59:28;22.90;45.80
25564;DHT22;13453;47.994;8.790;2022-09-20T18:09:30;22.90;45.60
25564;DHT22;13453;47.994;8.790;2022-09-20T18:19:31;22.90;45.60
25564;DHT22;13453;47.994;8.790;2022-09-20T18:29:34;22.90;45.50
25564;DHT22;13453;47.994;8.790;2022-09-20T18:39:37;22.90;45.50
25564;DHT22;13453;47.994;8.790;2022-09-20T18:49:39;22.90;45.40
25564;DHT22;13453;47.994;8.790;2022-09-20T18:59:41;22.80;45.30
25564;DHT22;13453;47.994;8.790;2022-09-20T19:20:03;22.80;45.20
25564;DHT22;13453;47.994;8.790;2022-09-20T19:30:13;22.80;45.30
25564;DHT22;13453;47.994;8.790;2022-09-20T19:50:48;22.90;45.60
25564;DHT22;13453;47.994;8.790;2022-09-20T20:00:50;22.90;47.60
25564;DHT22;13453;47.994;8.790;2022-09-20T20:21:06;23.00;47.30
25564;DHT22;13453;47.994;8.790;2022-09-20T20:31:08;22.90;47.20
25564;DHT22;13453;47.994;8.790;2022-09-20T20:41:14;22.90;47.10
25564;DHT22;13453;47.994;8.790;2022-09-20T20:51:19;23.00;47.00
25564;DHT22;13453;47.994;8.790;2022-09-20T21:01:42;22.90;47.00
25564;DHT22;13453;47.994;8.790;2022-09-20T21:11:46;22.90;47.10
25564;DHT22;13453;47.994;8.790;2022-09-20T21:21:49;22.90;47.40
25564;DHT22;13453;47.994;8.790;2022-09-20T21:31:51;22.90;47.40
25564;DHT22;13453;47.994;8.790;2022-09-20T21:41:52;22.90;47.50
25564;DHT22;13453;47.994;8.790;2022-09-20T21:51:55;22.90;47.50
25564;DHT22;13453;47.994;8.790;2022-09-20T22:01:56;22.90;47.50
25564;DHT22;13453;47.994;8.790;2022-09-20T22:11:59;22.90;47.50
25564;DHT22;13453;47.994;8.790;2022-09-20T22:22:01;22.90;47.50
25564;DHT22;13453;47.994;8.790;2022-09-20T22:32:03;22.90;47.50
25564;DHT22;13453;47.994;8.790;2022-09-20T22:42:05;22.90;47.50
25564;DHT22;13453;47.994;8.790;2022-09-20T22:52:06;22.90;47.50
25564;DHT22;13453;47.994;8.790;2022-09-20T23:02:08;22.90;47.50
25564;DHT22;13453;47.994;8.790;2022-09-20T23:12:10;22.90;47.60
25564;DHT22;13453;47.994;8.790;2022-09-20T23:22:12;23.00;47.60
25564;DHT22;13453;47.994;8.790;2022-09-20T23:32:13;22.80;47.60
25564;DHT22;13453;47.994;8.790;2022-09-20T23:42:15;22.80;47.40
25564;DHT22;13453;47.994;8.790;2022-09-20T23:52:17;22.80;47.50
